createdAt,value
2019-05-11T00:00:48.305Z,1015.97
2019-05-11T00:01:48.296Z,1015.82
2019-05-11T00:02:48.277Z,1015.33
2019-05-11T00:03:48.358Z,1015.67
2019-05-11T00:04:48.313Z,1015.2
2019-05-11T00:05:48.343Z,1015.37
2019-05-11T00:06:48.288Z,1015.27
2019-05-11T00:07:48.335Z,1015.25
2019-05-11T00:08:48.291Z,1015.79
2019-05-11T00:09:57.338Z,1015.83
2019-05-11T00:10:48.293Z,1016.07
2019-05-11T00:11:48.301Z,1016.14
2019-05-11T00:12:48.317Z,1016.02
2019-05-11T00:13:48.309Z,1016.51
2019-05-11T00:14:48.314Z,1016.84
2019-05-11T00:15:48.409Z,1016.89
2019-05-11T00:16:48.306Z,1016.79
2019-05-11T00:17:48.304Z,1016.64
2019-05-11T00:18:59.921Z,1016.94
2019-05-11T00:19:48.317Z,1016.85
2019-05-11T00:20:48.320Z,1016.51
2019-05-11T00:21:48.315Z,1016.44
2019-05-11T00:22:48.323Z,1016.02
2019-05-11T00:23:48.367Z,1016.02
2019-05-11T00:24:48.307Z,1015.69
2019-05-11T00:25:48.331Z,1015.52
2019-05-11T00:26:48.329Z,1015.17
2019-05-11T00:27:48.306Z,1014.96
2019-05-11T00:28:48.332Z,1014.51
2019-05-11T00:29:48.321Z,1014.43
2019-05-11T00:30:48.308Z,1013.79
2019-05-11T00:31:48.354Z,1013.19
2019-05-11T00:32:48.341Z,1012.98
2019-05-11T00:33:48.343Z,1012.82
2019-05-11T00:34:48.313Z,1012.49
2019-05-11T00:35:48.357Z,1012.73
2019-05-11T00:36:48.323Z,1012.13
2019-05-11T00:37:48.353Z,1012.03
2019-05-11T00:38:48.342Z,1012.18
2019-05-11T00:39:48.328Z,1012.22
2019-05-11T00:40:48.369Z,1011.84
2019-05-11T00:41:48.341Z,1011.84
2019-05-11T00:42:48.363Z,1011.75
2019-05-11T00:43:48.352Z,1011.99
2019-05-11T00:44:48.362Z,1012.05
2019-05-11T00:45:48.363Z,1012.13
2019-05-11T00:46:48.349Z,1012.1
2019-05-11T00:47:48.376Z,1012.67
2019-05-11T00:48:58.165Z,1012.43
2019-05-11T00:49:48.396Z,1012.41
2019-05-11T00:50:48.347Z,1012.54
2019-05-11T00:51:48.372Z,1011.95
2019-05-11T00:52:48.375Z,1012
2019-05-11T00:53:48.367Z,1011.74
2019-05-11T00:54:48.347Z,1011.44
2019-05-11T00:55:48.364Z,1011.25
2019-05-11T00:56:53.384Z,1011.38
2019-05-11T00:57:48.355Z,1011.04
2019-05-11T00:58:50.891Z,1011.21
2019-05-11T00:59:48.366Z,1011.09
2019-05-11T01:00:48.534Z,1010.77
2019-05-11T01:01:48.382Z,1011.1
2019-05-11T01:02:48.362Z,1011.2
2019-05-11T01:03:48.391Z,1011.1
2019-05-11T01:04:48.405Z,1010.94
2019-05-11T01:05:48.393Z,1010.93
2019-05-11T01:06:48.373Z,1011.01
2019-05-11T01:09:06.489Z,1010.78
2019-05-11T01:10:06.447Z,1010.47
2019-05-11T01:11:06.457Z,1010.73
2019-05-11T01:12:06.483Z,1010.72
2019-05-11T01:13:06.493Z,1010.71
2019-05-11T01:14:06.478Z,1010.59
2019-05-11T01:15:06.486Z,1010.6
2019-05-11T01:16:06.465Z,1010.85
2019-05-11T01:17:06.494Z,1010.83
2019-05-11T01:18:06.463Z,1010.79
2019-05-11T01:19:06.646Z,1010.43
2019-05-11T01:20:06.469Z,1010.31
2019-05-11T01:21:06.557Z,1010.12
2019-05-11T01:22:06.484Z,1009.67
2019-05-11T01:23:06.491Z,1009.8
2019-05-11T01:24:06.523Z,1009.84
2019-05-11T01:25:06.497Z,1009.54
2019-05-11T01:26:06.493Z,1009.31
2019-05-11T01:27:06.478Z,1009.14
2019-05-11T01:28:06.496Z,1008.94
2019-05-11T01:29:06.760Z,1008.83
2019-05-11T01:30:06.493Z,1008.6
2019-05-11T01:31:06.564Z,1008.54
2019-05-11T01:32:06.524Z,1008.49
2019-05-11T01:33:06.574Z,1008.59
2019-05-11T01:34:06.480Z,1008.46
2019-05-11T01:35:06.489Z,1008.97
2019-05-11T01:36:06.500Z,1008.57
2019-05-11T01:37:06.513Z,1008.36
2019-05-11T01:38:06.509Z,1008.63
2019-05-11T01:39:06.864Z,1008.58
2019-05-11T01:40:06.500Z,1008.27
2019-05-11T01:41:06.486Z,1008.26
2019-05-11T01:42:06.508Z,1008.14
2019-05-11T01:43:06.495Z,1007.96
2019-05-11T01:44:06.505Z,1007.57
2019-05-11T01:45:06.530Z,1007.6
2019-05-11T01:46:06.536Z,1007.17
2019-05-11T01:47:06.542Z,1007.19
2019-05-11T01:48:06.508Z,1007.59
2019-05-11T01:49:06.526Z,1007.23
2019-05-11T01:50:06.532Z,1007.41
2019-05-11T01:51:06.516Z,1007.43
2019-05-11T01:52:06.526Z,1007.08
2019-05-11T01:53:06.530Z,1007.51
2019-05-11T01:54:06.534Z,1007.36
2019-05-11T01:55:06.522Z,1007.48
2019-05-11T01:56:06.549Z,1006.77
2019-05-11T01:57:06.533Z,1007.28
2019-05-11T01:58:06.539Z,1007.18
2019-05-11T01:59:06.528Z,1007.36
2019-05-11T02:00:06.554Z,1007.15
2019-05-11T02:01:06.517Z,1007.45
2019-05-11T02:02:06.530Z,1007.33
2019-05-11T02:03:06.552Z,1007.58
2019-05-11T02:04:06.525Z,1007.28
2019-05-11T02:05:06.532Z,1007.69
2019-05-11T02:06:06.553Z,1007.77
2019-05-11T02:07:06.592Z,1007.8
2019-05-11T02:08:06.530Z,1007.95
2019-05-11T02:09:06.880Z,1008.25
2019-05-11T02:15:45.931Z,1008.71
2019-05-11T02:16:45.943Z,1008.4
2019-05-11T02:17:46.293Z,1008.41
2019-05-11T02:18:45.898Z,1008.52
2019-05-11T02:19:45.913Z,1008.62
2019-05-11T02:20:45.935Z,1008.47
2019-05-11T02:21:45.928Z,1008.5
2019-05-11T02:22:45.910Z,1008.14
2019-05-11T02:23:45.924Z,1008.15
2019-05-11T02:24:45.948Z,1007.63
2019-05-11T02:25:45.928Z,1007.12
2019-05-11T02:26:45.947Z,1006.92
2019-05-11T02:27:45.950Z,1006.54
2019-05-11T02:28:45.950Z,1006.7
2019-05-11T02:29:45.935Z,1006.31
2019-05-11T02:30:45.948Z,1006.6
2019-05-11T02:31:45.971Z,1006.31
2019-05-11T02:32:45.955Z,1006.62
2019-05-11T02:33:45.923Z,1006.98
2019-05-11T02:34:45.951Z,1007.64
2019-05-11T02:35:45.957Z,1007.74
2019-05-11T02:36:45.938Z,1008.01
2019-05-11T02:37:45.955Z,1007.61
2019-05-11T02:38:45.961Z,1007.7
2019-05-11T02:39:45.946Z,1007.56
2019-05-11T02:40:45.948Z,1007.11
2019-05-11T02:45:15.547Z,1005.47
2019-05-11T02:46:14.224Z,1004.74
2019-05-11T02:47:14.206Z,1003.78
2019-05-11T02:48:14.204Z,1003.83
2019-05-11T02:49:14.228Z,1004.18
2019-05-11T02:50:14.208Z,1004.09
2019-05-11T02:51:14.214Z,1003.8
2019-05-11T02:52:14.244Z,1003.79
2019-05-11T02:53:14.205Z,1004.07
2019-05-11T02:54:14.231Z,1003.88
2019-05-11T02:55:14.242Z,1003.87
2019-05-11T02:56:14.230Z,1003.53
2019-05-11T02:57:14.219Z,1003.42
2019-05-11T02:58:14.218Z,1003.41
2019-05-11T02:59:14.249Z,1002.3
2019-05-11T03:00:14.357Z,1002.62
2019-05-11T03:01:14.251Z,1002.21
2019-05-11T03:02:14.249Z,1001.94
2019-05-11T03:03:14.239Z,1001.82
2019-05-11T03:04:14.257Z,1001.62
2019-05-11T03:05:14.225Z,1001.49
2019-05-11T03:06:14.343Z,1001.04
2019-05-11T03:07:14.262Z,1001.27
2019-05-11T03:08:14.267Z,1001.23
2019-05-11T03:09:14.231Z,1001.32
2019-05-11T03:10:14.237Z,1001.68
2019-05-11T03:11:14.269Z,1001.72
2019-05-11T03:12:14.274Z,1002.01
2019-05-11T03:13:14.297Z,1002.13
2019-05-11T03:14:14.286Z,1002.27
2019-05-11T03:15:14.273Z,1001.82
2019-05-11T03:16:14.321Z,1001.65
2019-05-11T03:17:14.264Z,1001.31
2019-05-11T03:18:14.249Z,1000.68
2019-05-11T03:19:18.331Z,1000.16
2019-05-11T03:20:14.329Z,1000.18
2019-05-11T03:21:14.257Z,999.8
2019-05-11T03:22:14.262Z,999.33
2019-05-11T03:23:14.290Z,999.31
2019-05-11T03:24:14.256Z,998.71
2019-05-11T03:25:14.259Z,997.82
2019-05-11T03:26:14.292Z,997.3
2019-05-11T03:27:14.256Z,997.05
2019-05-11T03:28:14.283Z,996.43
2019-05-11T03:29:14.288Z,996.39
2019-05-11T03:30:14.300Z,996.21
2019-05-11T03:31:14.294Z,995.82
2019-05-11T03:32:14.276Z,995.53
2019-05-11T03:33:14.305Z,995.28
2019-05-11T03:34:14.283Z,995.17
2019-05-11T03:35:14.284Z,995.04
2019-05-11T03:36:14.270Z,995.14
2019-05-11T03:37:14.311Z,995.05
2019-05-11T03:38:14.288Z,995.35
2019-05-11T03:39:14.291Z,995.68
2019-05-11T03:40:14.296Z,995.81
2019-05-11T03:41:14.387Z,996.11
2019-05-11T03:42:15.385Z,996.14
2019-05-11T03:43:14.321Z,996.23
2019-05-11T03:44:14.292Z,996.56
2019-05-11T03:45:14.298Z,996.61
2019-05-11T03:46:14.299Z,996.79
2019-05-11T03:47:14.326Z,996.96
2019-05-11T03:48:14.295Z,996.68
2019-05-11T03:49:17.697Z,996.68
2019-05-11T03:50:14.308Z,996.77
2019-05-11T03:51:14.313Z,996.62
2019-05-11T03:52:14.321Z,996.87
2019-05-11T03:53:14.330Z,997.1
2019-05-11T03:54:14.328Z,996.43
2019-05-11T03:55:14.338Z,996.53
2019-05-11T03:56:14.333Z,995.35
2019-05-11T03:57:14.398Z,995.76
2019-05-11T03:58:14.335Z,995.63
2019-05-11T03:59:14.344Z,995.55
2019-05-11T04:05:52.127Z,994.88
2019-05-11T04:06:52.163Z,994.77
2019-05-11T04:07:52.095Z,995.31
2019-05-11T04:08:52.102Z,994.98
2019-05-11T04:09:52.129Z,994.65
2019-05-11T04:10:52.103Z,994.38
2019-05-11T04:11:52.101Z,994.53
2019-05-11T04:12:52.130Z,993.95
2019-05-11T04:13:52.178Z,994.72
2019-05-11T04:14:52.101Z,994.94
2019-05-11T04:19:33.289Z,995.47
2019-05-11T04:20:33.606Z,995.63
2019-05-11T04:21:33.304Z,995.69
2019-05-11T04:22:33.273Z,995.59
2019-05-11T04:23:33.275Z,996.01
2019-05-11T04:24:33.272Z,996.31
2019-05-11T04:25:33.267Z,996.15
2019-05-11T04:26:33.280Z,996.31
2019-05-11T04:27:33.290Z,996.77
2019-05-11T04:28:33.270Z,996.6
2019-05-11T04:29:33.301Z,997.05
2019-05-11T04:30:33.301Z,997.57
2019-05-11T04:31:33.298Z,997.41
2019-05-11T04:32:33.299Z,997.32
2019-05-11T04:33:33.597Z,997.68
2019-05-11T04:34:33.289Z,997.74
2019-05-11T04:35:33.316Z,997.79
2019-05-11T04:36:33.303Z,997.99
2019-05-11T04:37:33.324Z,998.42
2019-05-11T04:38:33.294Z,998.47
2019-05-11T04:39:33.281Z,998.45
2019-05-11T04:40:33.286Z,997.98
2019-05-11T04:45:02.416Z,997.54
2019-05-11T04:46:02.535Z,997.51
2019-05-11T04:47:02.563Z,997.26
2019-05-11T04:48:02.560Z,997.14
2019-05-11T04:49:02.424Z,997.42
2019-05-11T04:50:03.248Z,997.36
2019-05-11T04:51:02.524Z,997.58
2019-05-11T04:52:02.424Z,997.8
2019-05-11T04:53:02.435Z,998.15
2019-05-11T04:54:03.460Z,998.16
2019-05-11T04:55:02.486Z,998.06
2019-05-11T04:59:31.888Z,998.93
2019-05-11T05:00:31.864Z,999.05
2019-05-11T05:01:31.998Z,998.45
2019-05-11T05:02:31.855Z,999.78
2019-05-11T05:03:40.095Z,999.83
2019-05-11T05:04:31.868Z,1000.05
2019-05-11T05:05:32.237Z,1000.42
2019-05-11T05:06:32.016Z,1000.52
2019-05-11T05:07:31.876Z,1000.65
2019-05-11T05:08:31.883Z,1000.51
2019-05-11T05:09:35.792Z,1000.79
2019-05-11T05:10:31.889Z,1000.76
2019-05-11T05:11:36.492Z,1000.95
2019-05-11T05:12:31.923Z,1000.81
2019-05-11T05:13:31.916Z,1000.62
2019-05-11T05:14:31.922Z,1000.82
2019-05-11T05:15:31.910Z,1000.72
2019-05-11T05:16:32.341Z,1000.9
2019-05-11T05:17:31.918Z,1000.88
2019-05-11T05:18:31.911Z,1000.94
2019-05-11T05:19:33.182Z,1001.25
2019-05-11T05:20:31.912Z,1001.11
2019-05-11T05:21:31.897Z,1002
2019-05-11T05:22:31.911Z,1002.37
2019-05-11T05:23:31.890Z,1002.95
2019-05-11T05:24:31.902Z,1003.27
2019-05-11T05:25:31.912Z,1003.44
2019-05-11T05:26:31.915Z,1004.02
2019-05-11T05:27:31.899Z,1004.47
2019-05-11T05:28:31.909Z,1004.59
2019-05-11T05:29:31.992Z,1004.8
2019-05-11T05:30:31.919Z,1004.77
2019-05-11T05:31:31.905Z,1004.44
2019-05-11T05:32:31.930Z,1004.22
2019-05-11T05:33:31.924Z,1004.28
2019-05-11T05:34:31.929Z,1004.19
2019-05-11T05:35:31.931Z,1004.3
2019-05-11T05:36:31.954Z,1003.97
2019-05-11T05:37:31.945Z,1003.84
2019-05-11T05:38:31.951Z,1003.83
2019-05-11T05:39:31.942Z,1003.62
2019-05-11T05:40:31.964Z,1004.16
2019-05-11T05:45:00.194Z,1004.88
2019-05-11T05:46:00.196Z,1004.91
2019-05-11T05:47:00.210Z,1004.78
2019-05-11T05:48:00.223Z,1005.02
2019-05-11T05:49:00.156Z,1004.95
2019-05-11T05:50:00.185Z,1005.37
2019-05-11T05:51:00.189Z,1005.66
2019-05-11T05:52:00.160Z,1005.91
2019-05-11T05:53:00.200Z,1006.33
2019-05-11T05:54:00.188Z,1006.62
2019-05-11T05:55:00.184Z,1007.06
2019-05-11T05:56:00.181Z,1007.32
2019-05-11T05:57:00.188Z,1007.22
2019-05-11T05:58:00.197Z,1007.64
2019-05-11T05:59:00.201Z,1008.13
2019-05-11T06:00:00.196Z,1008.65
2019-05-11T06:01:00.250Z,1009.32
2019-05-11T06:05:31.074Z,1012.76
2019-05-11T06:06:31.072Z,1013.3
2019-05-11T06:07:31.182Z,1014.14
2019-05-11T06:08:31.064Z,1015.18
2019-05-11T06:09:31.091Z,1015.57
2019-05-11T06:10:31.097Z,1016.19
2019-05-11T06:11:31.490Z,1016.49
2019-05-11T06:12:31.071Z,1016.7
2019-05-11T06:13:44.330Z,1017.71
2019-05-11T06:14:31.211Z,1018.71
2019-05-11T06:15:31.073Z,1019.45
2019-05-11T06:16:31.076Z,1020.77
2019-05-11T06:17:31.061Z,1021.98
2019-05-11T06:18:31.089Z,1023.14
2019-05-11T06:19:40.070Z,1024
2019-05-11T06:20:31.111Z,1025.07
2019-05-11T06:25:00.387Z,1031.19
2019-05-11T06:26:00.406Z,1031.85
2019-05-11T06:27:00.402Z,1032.67
2019-05-11T06:28:00.429Z,1035.6
2019-05-11T06:29:00.410Z,1038.42
2019-05-11T06:30:00.474Z,1039.5
2019-05-11T06:31:00.487Z,1040.1
2019-05-11T06:32:00.425Z,1040.26
2019-05-11T06:33:00.395Z,1039.75
2019-05-11T06:34:00.410Z,1039.64
2019-05-11T06:35:00.462Z,1039.23
2019-05-11T06:36:00.404Z,1039.39
2019-05-11T06:37:00.430Z,1039.38
2019-05-11T06:38:00.393Z,1038.97
2019-05-11T06:39:00.394Z,1038.94
2019-05-11T06:40:00.604Z,1039.15
2019-05-11T06:41:00.386Z,1038.83
2019-05-11T06:42:00.376Z,1038.8
2019-05-11T06:43:00.377Z,1038.81
2019-05-11T06:44:02.060Z,1038.87
2019-05-11T06:45:00.412Z,1038.91
2019-05-11T06:46:00.401Z,1038.77
2019-05-11T06:47:00.389Z,1038.82
2019-05-11T06:48:00.391Z,1038.63
2019-05-11T06:49:00.399Z,1038.63
2019-05-11T06:50:00.391Z,1038.62
2019-05-11T06:51:00.409Z,1038.4
2019-05-11T06:52:00.420Z,1038.26
2019-05-11T06:53:00.408Z,1038.19
2019-05-11T06:54:00.413Z,1038.09
2019-05-11T06:55:00.442Z,1037.67
2019-05-11T06:56:00.452Z,1037.52
2019-05-11T06:57:00.554Z,1037.39
2019-05-11T06:58:00.417Z,1037.7
2019-05-11T06:59:00.427Z,1038
2019-05-11T07:00:00.409Z,1038.32
2019-05-11T07:01:00.473Z,1038.32
2019-05-11T07:02:00.405Z,1038.5
2019-05-11T07:03:00.417Z,1038.49
2019-05-11T07:04:00.423Z,1038.54
2019-05-11T07:05:00.426Z,1038.41
2019-05-11T07:06:00.449Z,1038.35
2019-05-11T07:07:00.445Z,1038.22
2019-05-11T07:08:00.449Z,1038.33
2019-05-11T07:09:00.426Z,1038.96
2019-05-11T07:10:00.435Z,1039.13
2019-05-11T07:11:00.439Z,1039.02
2019-05-11T07:12:00.534Z,1038.99
2019-05-11T07:13:00.461Z,1038.99
2019-05-11T07:14:00.460Z,1039.01
2019-05-11T07:15:00.444Z,1039.95
2019-05-11T07:16:00.458Z,1040.4
2019-05-11T07:17:00.457Z,1041.16
2019-05-11T07:18:00.854Z,1041.69
2019-05-11T07:19:01.102Z,1042.29
2019-05-11T07:20:01.569Z,1042.84
2019-05-11T07:21:01.304Z,1043.37
2019-05-11T07:22:00.576Z,1044.31
2019-05-11T07:23:00.545Z,1045.27
2019-05-11T07:24:00.469Z,1047.05
2019-05-11T07:25:00.570Z,1048.36
2019-05-11T07:26:00.517Z,1050.07
2019-05-11T07:27:00.466Z,1057.91
2019-05-11T07:28:00.451Z,1065.06
2019-05-11T07:29:00.834Z,1071.4
2019-05-11T07:30:00.462Z,1078.12
2019-05-11T07:36:39.531Z,1096.8
2019-05-11T07:37:41.631Z,1096.95
2019-05-11T07:38:39.503Z,1097.49
2019-05-11T07:39:39.530Z,1098.43
2019-05-11T07:40:39.479Z,1100.15
2019-05-11T07:41:39.524Z,1100.97
2019-05-11T07:42:39.514Z,1101.69
2019-05-11T07:43:39.505Z,1101.84
2019-05-11T07:44:41.779Z,1102.23
2019-05-11T07:45:39.527Z,1102.78
2019-05-11T07:46:39.534Z,1103.02
2019-05-11T07:47:39.528Z,1103.21
2019-05-11T07:48:39.495Z,1103.56
2019-05-11T07:49:43.628Z,1103.76
2019-05-11T07:50:39.916Z,1104.15
2019-05-11T07:51:39.533Z,1104.69
2019-05-11T07:52:39.578Z,1105.18
2019-05-11T07:53:39.585Z,1105.52
2019-05-11T07:54:40.217Z,1105.57
2019-05-11T07:55:40.196Z,1105.76
2019-05-11T07:56:40.074Z,1105.83
2019-05-11T07:57:40.490Z,1105.74
2019-05-11T07:58:39.682Z,1105.67
2019-05-11T07:59:40.132Z,1105.66
2019-05-11T08:00:40.075Z,1105.52
2019-05-11T08:01:39.577Z,1105.19
2019-05-11T08:02:40.064Z,1104.66
2019-05-11T08:03:39.654Z,1104.23
2019-05-11T08:04:39.533Z,1104
2019-05-11T08:05:39.542Z,1103.81
2019-05-11T08:06:39.548Z,1103.64
2019-05-11T08:07:39.533Z,1103.56
2019-05-11T08:08:39.523Z,1103.42
2019-05-11T08:09:39.570Z,1103.19
2019-05-11T08:10:39.534Z,1103.24
2019-05-11T08:11:39.558Z,1102.88
2019-05-11T08:12:39.676Z,1102.56
2019-05-11T08:13:39.553Z,1102.54
2019-05-11T08:14:56.234Z,1102.31
2019-05-11T08:15:39.545Z,1102.29
2019-05-11T08:16:39.591Z,1102.15
2019-05-11T08:17:39.538Z,1102.03
2019-05-11T08:18:39.567Z,1102.2
2019-05-11T08:19:51.423Z,1102.26
2019-05-11T08:20:39.683Z,1102.27
2019-05-11T08:21:39.680Z,1102.18
2019-05-11T08:22:39.644Z,1101.99
2019-05-11T08:23:39.556Z,1101.74
2019-05-11T08:24:39.562Z,1101.77
2019-05-11T08:25:40.307Z,1101.37
2019-05-11T08:26:40.231Z,1101.68
2019-05-11T08:27:40.188Z,1101.68
2019-05-11T08:28:39.561Z,1101.5
2019-05-11T08:29:39.577Z,1101.59
2019-05-11T08:30:40.396Z,1101.68
2019-05-11T08:31:40.317Z,1102.07
2019-05-11T08:32:40.294Z,1102.24
2019-05-11T08:33:39.622Z,1102.73
2019-05-11T08:34:40.224Z,1102.77
2019-05-11T08:35:40.253Z,1103.09
2019-05-11T08:36:39.696Z,1103.18
2019-05-11T08:37:39.591Z,1103.29
2019-05-11T08:38:39.615Z,1103.34
2019-05-11T08:39:39.670Z,1103.55
2019-05-11T08:40:39.585Z,1103.83
2019-05-11T08:41:39.591Z,1103.97
2019-05-11T08:42:39.614Z,1104.06
2019-05-11T08:43:39.588Z,1104.19
2019-05-11T08:44:39.715Z,1104.57
2019-05-11T08:45:39.599Z,1105.01
2019-05-11T08:46:39.600Z,1105.34
2019-05-11T08:47:39.615Z,1105.69
2019-05-11T08:48:39.592Z,1105.89
2019-05-11T08:49:49.917Z,1106.28
2019-05-11T08:50:39.594Z,1106.5
2019-05-11T08:51:39.602Z,1106.56
2019-05-11T08:52:39.609Z,1106.75
2019-05-11T08:53:39.624Z,1107.23
2019-05-11T08:54:39.623Z,1107.65
2019-05-11T08:55:39.628Z,1109.27
2019-05-11T08:56:39.621Z,1113.09
2019-05-11T08:57:39.608Z,1115.39
2019-05-11T08:58:39.661Z,1116.92
2019-05-11T08:59:40.007Z,1118.03
2019-05-11T09:00:39.628Z,1119.12
2019-05-11T09:01:39.653Z,1119.66
2019-05-11T09:02:39.657Z,1120.06
2019-05-11T09:03:39.698Z,1120.58
2019-05-11T09:04:41.982Z,1120.73
2019-05-11T09:05:39.696Z,1120.91
2019-05-11T09:06:39.687Z,1121.03
2019-05-11T09:07:39.649Z,1121.1
2019-05-11T09:08:39.675Z,1121.36
2019-05-11T09:09:39.638Z,1121.43
2019-05-11T09:10:39.910Z,1121.49
2019-05-11T09:11:39.662Z,1121.46
2019-05-11T09:12:39.661Z,1121.46
2019-05-11T09:13:39.670Z,1121.49
2019-05-11T09:14:39.635Z,1121.53
2019-05-11T09:15:40.692Z,1121.49
2019-05-11T09:16:39.644Z,1121.45
2019-05-11T09:17:39.652Z,1121.38
2019-05-11T09:18:39.642Z,1121.32
2019-05-11T09:19:39.673Z,1121.21
2019-05-11T09:20:39.692Z,1121.06
2019-05-11T09:21:39.653Z,1120.96
2019-05-11T09:22:39.656Z,1120.91
2019-05-11T09:23:41.015Z,1120.74
2019-05-11T09:24:39.690Z,1120.6
2019-05-11T09:25:39.779Z,1120.3
2019-05-11T09:26:39.722Z,1120.08
2019-05-11T09:27:43.268Z,1119.87
2019-05-11T09:28:39.722Z,1119.76
2019-05-11T09:29:40.079Z,1119.71
2019-05-11T09:30:40.215Z,1119.59
2019-05-11T09:31:39.720Z,1119.43
2019-05-11T09:32:39.721Z,1119.19
2019-05-11T09:33:40.181Z,1118.97
2019-05-11T09:34:40.719Z,1118.85
2019-05-11T09:35:49.706Z,1118.6
2019-05-11T09:36:40.521Z,1118.3
2019-05-11T09:37:40.635Z,1118.01
2019-05-11T09:38:39.699Z,1117.84
2019-05-11T09:39:39.751Z,1117.59
2019-05-11T09:40:40.329Z,1117.58
2019-05-11T09:41:40.380Z,1117.39
2019-05-11T09:42:40.355Z,1117.3
2019-05-11T09:43:40.471Z,1117.29
2019-05-11T09:44:40.312Z,1117.06
2019-05-11T09:45:48.011Z,1116.92
2019-05-11T09:46:39.731Z,1117.06
2019-05-11T09:47:39.698Z,1117.16
2019-05-11T09:48:39.726Z,1117.22
2019-05-11T09:49:47.269Z,1117.45
2019-05-11T09:50:42.552Z,1117.44
2019-05-11T09:51:39.730Z,1117.34
2019-05-11T09:52:39.729Z,1117.23
2019-05-11T09:53:39.716Z,1117.1
2019-05-11T09:54:39.710Z,1117.05
2019-05-11T09:55:39.710Z,1116.92
2019-05-11T09:56:40.440Z,1116.79
2019-05-11T09:57:39.709Z,1116.74
2019-05-11T09:58:39.716Z,1116.56
2019-05-11T09:59:39.745Z,1116.45
2019-05-11T10:00:39.722Z,1116.25
2019-05-11T10:01:39.737Z,1116.07
2019-05-11T10:02:39.755Z,1115.72
2019-05-11T10:03:39.750Z,1115.25
2019-05-11T10:04:40.097Z,1114.62
2019-05-11T10:05:39.755Z,1114.4
2019-05-11T10:06:39.745Z,1113.88
2019-05-11T10:07:39.730Z,1113.34
2019-05-11T10:08:39.743Z,1112.63
2019-05-11T10:09:39.740Z,1111.54
2019-05-11T10:10:39.745Z,1110.66
2019-05-11T10:11:40.046Z,1109.69
2019-05-11T10:12:39.766Z,1108.51
2019-05-11T10:13:39.775Z,1107.29
2019-05-11T10:14:39.760Z,1106.24
2019-05-11T10:15:39.760Z,1105.31
2019-05-11T10:16:39.747Z,1104.15
2019-05-11T10:20:10.076Z,1101.85
2019-05-11T10:21:10.076Z,1101.52
2019-05-11T10:22:10.089Z,1101.02
2019-05-11T10:23:10.074Z,1100.52
2019-05-11T10:24:10.057Z,1100.49
2019-05-11T10:25:10.086Z,1101.27
2019-05-11T10:26:10.087Z,1104.64
2019-05-11T10:27:10.137Z,1105.12
2019-05-11T10:28:10.120Z,1105.17
2019-05-11T10:29:10.067Z,1106.83
2019-05-11T10:30:10.075Z,1110.77
2019-05-11T10:31:10.100Z,1113.34
2019-05-11T10:32:10.093Z,1113.89
2019-05-11T10:33:10.076Z,1114.16
2019-05-11T10:34:10.083Z,1115.08
2019-05-11T10:35:10.107Z,1116.06
2019-05-11T10:36:10.092Z,1115.87
2019-05-11T10:37:10.101Z,1115.88
2019-05-11T10:38:10.113Z,1116.28
2019-05-11T10:39:10.092Z,1116.73
2019-05-11T10:40:10.107Z,1117.01
2019-05-11T10:41:10.113Z,1117.11
2019-05-11T10:42:10.110Z,1116.88
2019-05-11T10:43:10.121Z,1116.73
2019-05-11T10:44:10.088Z,1116.53
2019-05-11T10:45:10.441Z,1116.44
2019-05-11T10:46:19.029Z,1116.68
2019-05-11T10:47:10.128Z,1116.86
2019-05-11T10:48:10.109Z,1116.87
2019-05-11T10:49:10.121Z,1117.02
2019-05-11T10:50:10.148Z,1117.22
2019-05-11T10:51:10.137Z,1117.21
2019-05-11T10:52:10.106Z,1117.16
2019-05-11T10:53:10.109Z,1116.88
2019-05-11T10:54:10.119Z,1116.57
2019-05-11T10:55:10.168Z,1116.3
2019-05-11T10:56:10.108Z,1116.34
2019-05-11T10:57:10.166Z,1116.5
2019-05-11T10:58:10.120Z,1117.3
2019-05-11T10:59:10.129Z,1117.94
2019-05-11T11:00:10.137Z,1118.69
2019-05-11T11:01:10.166Z,1120.05
2019-05-11T11:05:39.230Z,1122.01
2019-05-11T11:06:39.220Z,1121.82
2019-05-11T11:07:39.166Z,1121.29
2019-05-11T11:08:39.194Z,1120.75
2019-05-11T11:09:39.182Z,1120.56
2019-05-11T11:10:39.184Z,1120.17
2019-05-11T11:11:39.191Z,1119.95
2019-05-11T11:12:39.173Z,1119.94
2019-05-11T11:13:39.202Z,1119.77
2019-05-11T11:14:39.272Z,1119.91
2019-05-11T11:15:39.176Z,1119.92
2019-05-11T11:16:42.559Z,1119.92
2019-05-11T11:17:41.015Z,1119.95
2019-05-11T11:18:40.506Z,1119.34
2019-05-11T11:19:39.203Z,1117.19
2019-05-11T11:20:39.273Z,1115.46
2019-05-11T11:21:39.244Z,1114.37
2019-05-11T11:22:42.899Z,1113.22
2019-05-11T11:23:39.193Z,1112.56
2019-05-11T11:24:39.233Z,1110.83
2019-05-11T11:25:39.199Z,1111.13
2019-05-11T11:26:39.225Z,1113.35
2019-05-11T11:27:39.205Z,1114.78
2019-05-11T11:28:39.202Z,1115.8
2019-05-11T11:29:39.225Z,1115.98
2019-05-11T11:30:39.222Z,1116.33
2019-05-11T11:31:39.222Z,1116.75
2019-05-11T11:32:39.228Z,1116.81
2019-05-11T11:33:39.243Z,1117.34
2019-05-11T11:34:39.232Z,1118.11
2019-05-11T11:35:39.231Z,1118.67
2019-05-11T11:36:39.237Z,1119.14
2019-05-11T11:37:39.241Z,1119.44
2019-05-11T11:38:39.250Z,1119.63
2019-05-11T11:39:39.293Z,1119.72
2019-05-11T11:40:42.339Z,1119.86
2019-05-11T11:41:39.244Z,1119.95
2019-05-11T11:42:39.230Z,1119.95
2019-05-11T11:43:39.241Z,1119.84
2019-05-11T11:44:39.225Z,1119.61
2019-05-11T11:45:39.230Z,1119.37
2019-05-11T11:46:50.612Z,1118.58
2019-05-11T11:47:39.259Z,1116.4
2019-05-11T11:48:39.252Z,1114.65
2019-05-11T11:49:39.277Z,1111.48
2019-05-11T11:50:39.248Z,1108.52
2019-05-11T11:51:39.251Z,1105.98
2019-05-11T11:52:39.262Z,1102.3
2019-05-11T11:53:39.266Z,1098.48
2019-05-11T11:54:39.251Z,1095.88
2019-05-11T11:55:39.245Z,1094.04
2019-05-11T11:56:39.267Z,1090.77
2019-05-11T11:57:39.273Z,1086.85
2019-05-11T11:58:39.277Z,1082.98
2019-05-11T11:59:39.268Z,1081.88
2019-05-11T12:00:39.356Z,1084.69
2019-05-11T12:01:39.278Z,1088.02
2019-05-11T12:02:39.283Z,1086.61
2019-05-11T12:03:39.291Z,1086.73
2019-05-11T12:04:39.564Z,1088.31
2019-05-11T12:05:39.284Z,1090.9
2019-05-11T12:06:39.278Z,1094.06
2019-05-11T12:07:39.274Z,1096.47
2019-05-11T12:08:39.303Z,1098.64
2019-05-11T12:09:39.277Z,1100.81
2019-05-11T12:10:39.282Z,1102.48
2019-05-11T12:11:39.308Z,1104.38
2019-05-11T12:12:39.310Z,1106.15
2019-05-11T12:13:39.295Z,1107.63
2019-05-11T12:14:39.306Z,1109.06
2019-05-11T12:15:39.291Z,1110.19
2019-05-11T12:16:39.305Z,1111.22
2019-05-11T12:17:39.311Z,1112.55
2019-05-11T12:18:39.308Z,1113.33
2019-05-11T12:19:39.324Z,1114.06
2019-05-11T12:20:39.295Z,1114.42
2019-05-11T12:21:39.295Z,1115.11
2019-05-11T12:22:39.312Z,1115.36
2019-05-11T12:23:39.315Z,1115.55
2019-05-11T12:24:39.318Z,1115.77
2019-05-11T12:25:40.540Z,1115.88
2019-05-11T12:26:39.320Z,1115.83
2019-05-11T12:27:39.321Z,1115.74
2019-05-11T12:28:39.345Z,1115.6
2019-05-11T12:29:39.408Z,1115.72
2019-05-11T12:30:39.355Z,1115.94
2019-05-11T12:31:39.379Z,1116.25
2019-05-11T12:32:39.385Z,1116.48
2019-05-11T12:33:39.379Z,1116.7
2019-05-11T12:34:39.342Z,1116.94
2019-05-11T12:35:39.313Z,1117.22
2019-05-11T12:36:39.337Z,1117.47
2019-05-11T12:37:39.321Z,1117.69
2019-05-11T12:38:39.332Z,1118.01
2019-05-11T12:39:39.353Z,1118.54
2019-05-11T12:40:39.324Z,1119.09
2019-05-11T12:41:39.347Z,1119.64
2019-05-11T12:46:08.789Z,1121.06
2019-05-11T12:47:20.902Z,1121.34
2019-05-11T12:48:09.115Z,1121.62
2019-05-11T12:49:08.781Z,1121.83
2019-05-11T12:50:18.596Z,1121.88
2019-05-11T12:51:08.818Z,1121.91
2019-05-11T12:52:08.803Z,1121.9
2019-05-11T12:53:08.791Z,1121.89
2019-05-11T12:54:08.778Z,1121.79
2019-05-11T12:55:08.898Z,1121.56
2019-05-11T12:56:08.812Z,1120.83
2019-05-11T12:57:08.820Z,1119.75
2019-05-11T12:58:08.821Z,1118.25
2019-05-11T12:59:08.829Z,1117.96
2019-05-11T13:00:08.901Z,1117.89
2019-05-11T13:01:09.047Z,1118.08
2019-05-11T13:02:08.789Z,1117.82
2019-05-11T13:03:08.796Z,1116.31